sensor_id;sensor_type;location;lat;lon;timestamp;P1;durP1;ratioP1;P2;durP2;ratioP2
49548;SDS011;35450;44.518;7.466;2022-09-24T00:04:23;12.65;;;6.65;;
49548;SDS011;35450;44.518;7.466;2022-09-24T00:07:28;9.85;;;6.22;;
49548;SDS011;35450;44.518;7.466;2022-09-24T00:10:38;18.15;;;7.47;;
49548;SDS011;35450;44.518;7.466;2022-09-24T00:13:43;8.00;;;7.20;;
49548;SDS011;35450;44.518;7.466;2022-09-24T00:16:47;9.93;;;6.90;;
49548;SDS011;35450;44.518;7.466;2022-09-24T00:19:52;15.52;;;7.50;;
49548;SDS011;35450;44.518;7.466;2022-09-24T00:22:56;11.98;;;6.85;;
49548;SDS011;35450;44.518;7.466;2022-09-24T00:26:00;11.90;;;6.93;;
49548;SDS011;35450;44.518;7.466;2022-09-24T00:29:23;13.95;;;7.45;;
49548;SDS011;35450;44.518;7.466;2022-09-24T00:32:27;9.70;;;7.38;;
49548;SDS011;35450;44.518;7.466;2022-09-24T00:35:31;13.07;;;7.20;;
49548;SDS011;35450;44.518;7.466;2022-09-24T00:38:35;15.82;;;6.85;;
49548;SDS011;35450;44.518;7.466;2022-09-24T00:41:40;9.73;;;7.28;;
49548;SDS011;35450;44.518;7.466;2022-09-24T00:44:48;9.88;;;6.65;;
49548;SDS011;35450;44.518;7.466;2022-09-24T00:47:57;12.60;;;6.15;;
49548;SDS011;35450;44.518;7.466;2022-09-24T00:51:01;9.40;;;6.97;;
49548;SDS011;35450;44.518;7.466;2022-09-24T00:54:08;11.48;;;7.32;;
49548;SDS011;35450;44.518;7.466;2022-09-24T00:57:29;8.48;;;6.50;;
49548;SDS011;35450;44.518;7.466;2022-09-24T01:00:37;14.65;;;7.28;;
49548;SDS011;35450;44.518;7.466;2022-09-24T01:03:42;8.50;;;6.30;;
49548;SDS011;35450;44.518;7.466;2022-09-24T01:06:47;8.07;;;6.00;;
49548;SDS011;35450;44.518;7.466;2022-09-24T01:09:51;12.52;;;6.90;;
49548;SDS011;35450;44.518;7.466;2022-09-24T01:12:57;10.40;;;6.03;;
49548;SDS011;35450;44.518;7.466;2022-09-24T01:35:44;18.55;;;7.78;;
49548;SDS011;35450;44.518;7.466;2022-09-24T01:38:52;11.93;;;6.75;;
49548;SDS011;35450;44.518;7.466;2022-09-24T01:42:00;9.95;;;6.22;;
49548;SDS011;35450;44.518;7.466;2022-09-24T01:45:04;12.60;;;6.60;;
49548;SDS011;35450;44.518;7.466;2022-09-24T01:48:09;17.65;;;6.55;;
49548;SDS011;35450;44.518;7.466;2022-09-24T01:51:14;8.57;;;6.28;;
49548;SDS011;35450;44.518;7.466;2022-09-24T01:54:38;12.05;;;5.72;;
49548;SDS011;35450;44.518;7.466;2022-09-24T01:57:48;7.15;;;5.53;;
49548;SDS011;35450;44.518;7.466;2022-09-24T02:00:58;12.85;;;5.15;;
49548;SDS011;35450;44.518;7.466;2022-09-24T02:04:14;11.82;;;5.15;;
49548;SDS011;35450;44.518;7.466;2022-09-24T02:07:30;11.27;;;6.10;;
49548;SDS011;35450;44.518;7.466;2022-09-24T02:10:48;8.00;;;5.75;;
49548;SDS011;35450;44.518;7.466;2022-09-24T02:17:17;10.45;;;5.65;;
49548;SDS011;35450;44.518;7.466;2022-09-24T02:20:21;17.40;;;5.78;;
49548;SDS011;35450;44.518;7.466;2022-09-24T02:23:28;9.52;;;5.00;;
49548;SDS011;35450;44.518;7.466;2022-09-24T02:26:35;10.85;;;6.13;;
49548;SDS011;35450;44.518;7.466;2022-09-24T02:29:40;10.55;;;5.20;;
49548;SDS011;35450;44.518;7.466;2022-09-24T02:32:44;11.13;;;5.47;;
49548;SDS011;35450;44.518;7.466;2022-09-24T02:35:49;14.23;;;6.35;;
49548;SDS011;35450;44.518;7.466;2022-09-24T02:38:54;6.10;;;4.57;;
49548;SDS011;35450;44.518;7.466;2022-09-24T02:41:58;13.77;;;5.10;;
49548;SDS011;35450;44.518;7.466;2022-09-24T02:45:04;8.25;;;5.25;;
49548;SDS011;35450;44.518;7.466;2022-09-24T02:48:09;8.40;;;5.10;;
49548;SDS011;35450;44.518;7.466;2022-09-24T02:51:13;12.77;;;5.65;;
49548;SDS011;35450;44.518;7.466;2022-09-24T02:54:16;9.35;;;5.25;;
49548;SDS011;35450;44.518;7.466;2022-09-24T02:57:20;10.68;;;5.15;;
49548;SDS011;35450;44.518;7.466;2022-09-24T03:00:24;13.95;;;5.70;;
49548;SDS011;35450;44.518;7.466;2022-09-24T03:03:29;11.77;;;6.03;;
49548;SDS011;35450;44.518;7.466;2022-09-24T03:06:32;13.65;;;5.05;;
49548;SDS011;35450;44.518;7.466;2022-09-24T03:09:36;10.73;;;5.30;;
49548;SDS011;35450;44.518;7.466;2022-09-24T03:12:40;15.13;;;5.80;;
49548;SDS011;35450;44.518;7.466;2022-09-24T03:15:46;10.75;;;4.90;;
49548;SDS011;35450;44.518;7.466;2022-09-24T03:18:50;18.73;;;5.35;;
49548;SDS011;35450;44.518;7.466;2022-09-24T03:21:53;12.23;;;5.07;;
49548;SDS011;35450;44.518;7.466;2022-09-24T03:24:57;8.68;;;4.70;;
49548;SDS011;35450;44.518;7.466;2022-09-24T03:28:01;12.15;;;5.53;;
49548;SDS011;35450;44.518;7.466;2022-09-24T03:31:05;12.05;;;5.32;;
49548;SDS011;35450;44.518;7.466;2022-09-24T03:34:10;7.00;;;5.18;;
49548;SDS011;35450;44.518;7.466;2022-09-24T03:37:14;9.25;;;5.78;;
49548;SDS011;35450;44.518;7.466;2022-09-24T03:40:18;8.02;;;4.90;;
49548;SDS011;35450;44.518;7.466;2022-09-24T03:43:22;5.28;;;3.72;;
49548;SDS011;35450;44.518;7.466;2022-09-24T03:46:26;10.40;;;4.50;;
49548;SDS011;35450;44.518;7.466;2022-09-24T03:49:32;10.23;;;4.40;;
49548;SDS011;35450;44.518;7.466;2022-09-24T03:57:33;10.00;;;3.97;;
49548;SDS011;35450;44.518;7.466;2022-09-24T04:00:38;8.32;;;4.70;;
49548;SDS011;35450;44.518;7.466;2022-09-24T04:03:41;8.65;;;4.78;;
49548;SDS011;35450;44.518;7.466;2022-09-24T04:06:45;6.75;;;4.28;;
49548;SDS011;35450;44.518;7.466;2022-09-24T04:09:49;6.47;;;4.05;;
49548;SDS011;35450;44.518;7.466;2022-09-24T04:12:53;8.30;;;4.40;;
49548;SDS011;35450;44.518;7.466;2022-09-24T04:16:03;12.55;;;4.95;;
49548;SDS011;35450;44.518;7.466;2022-09-24T04:19:07;12.52;;;4.47;;
49548;SDS011;35450;44.518;7.466;2022-09-24T04:22:11;8.52;;;4.40;;
49548;SDS011;35450;44.518;7.466;2022-09-24T04:25:16;8.93;;;4.68;;
49548;SDS011;35450;44.518;7.466;2022-09-24T04:28:20;8.80;;;5.20;;
49548;SDS011;35450;44.518;7.466;2022-09-24T04:31:24;13.13;;;4.65;;
49548;SDS011;35450;44.518;7.466;2022-09-24T04:34:31;8.90;;;4.75;;
49548;SDS011;35450;44.518;7.466;2022-09-24T04:37:36;10.45;;;5.43;;
49548;SDS011;35450;44.518;7.466;2022-09-24T04:40:40;5.63;;;4.85;;
49548;SDS011;35450;44.518;7.466;2022-09-24T04:43:44;6.47;;;4.65;;
49548;SDS011;35450;44.518;7.466;2022-09-24T04:46:48;8.70;;;5.00;;
49548;SDS011;35450;44.518;7.466;2022-09-24T04:49:52;8.40;;;4.93;;
49548;SDS011;35450;44.518;7.466;2022-09-24T04:52:56;8.70;;;4.68;;
49548;SDS011;35450;44.518;7.466;2022-09-24T04:56:04;7.93;;;4.35;;
49548;SDS011;35450;44.518;7.466;2022-09-24T04:59:14;10.88;;;4.97;;
49548;SDS011;35450;44.518;7.466;2022-09-24T05:02:18;9.50;;;4.00;;
49548;SDS011;35450;44.518;7.466;2022-09-24T05:05:22;8.07;;;4.30;;
49548;SDS011;35450;44.518;7.466;2022-09-24T05:08:26;12.48;;;4.57;;
49548;SDS011;35450;44.518;7.466;2022-09-24T05:11:30;8.30;;;4.45;;
49548;SDS011;35450;44.518;7.466;2022-09-24T05:14:34;15.70;;;4.75;;
49548;SDS011;35450;44.518;7.466;2022-09-24T05:17:38;11.15;;;5.60;;
49548;SDS011;35450;44.518;7.466;2022-09-24T05:20:43;9.50;;;5.45;;
49548;SDS011;35450;44.518;7.466;2022-09-24T05:23:47;10.63;;;6.10;;
49548;SDS011;35450;44.518;7.466;2022-09-24T05:26:51;7.68;;;5.75;;
49548;SDS011;35450;44.518;7.466;2022-09-24T05:30:13;17.42;;;5.97;;
49548;SDS011;35450;44.518;7.466;2022-09-24T05:33:18;8.25;;;5.85;;
49548;SDS011;35450;44.518;7.466;2022-09-24T05:36:22;8.55;;;5.28;;
49548;SDS011;35450;44.518;7.466;2022-09-24T05:39:29;16.92;;;6.47;;
49548;SDS011;35450;44.518;7.466;2022-09-24T05:42:33;10.52;;;5.50;;
49548;SDS011;35450;44.518;7.466;2022-09-24T05:45:37;14.15;;;6.80;;
49548;SDS011;35450;44.518;7.466;2022-09-24T05:48:41;12.13;;;5.82;;
49548;SDS011;35450;44.518;7.466;2022-09-24T05:51:47;16.20;;;7.38;;
49548;SDS011;35450;44.518;7.466;2022-09-24T05:54:52;15.25;;;6.80;;
49548;SDS011;35450;44.518;7.466;2022-09-24T05:58:03;9.38;;;6.50;;
49548;SDS011;35450;44.518;7.466;2022-09-24T06:04:12;16.70;;;8.35;;
49548;SDS011;35450;44.518;7.466;2022-09-24T06:07:16;10.20;;;8.13;;
49548;SDS011;35450;44.518;7.466;2022-09-24T06:10:20;12.80;;;8.40;;
49548;SDS011;35450;44.518;7.466;2022-09-24T06:13:24;12.27;;;8.25;;
49548;SDS011;35450;44.518;7.466;2022-09-24T06:16:28;16.02;;;8.60;;
49548;SDS011;35450;44.518;7.466;2022-09-24T06:19:35;17.80;;;8.80;;
49548;SDS011;35450;44.518;7.466;2022-09-24T06:22:40;13.75;;;9.02;;
49548;SDS011;35450;44.518;7.466;2022-09-24T06:25:47;11.45;;;8.98;;
49548;SDS011;35450;44.518;7.466;2022-09-24T06:28:52;24.42;;;10.30;;
49548;SDS011;35450;44.518;7.466;2022-09-24T06:31:56;18.38;;;13.50;;
49548;SDS011;35450;44.518;7.466;2022-09-24T06:35:00;19.20;;;11.68;;
49548;SDS011;35450;44.518;7.466;2022-09-24T06:38:05;14.75;;;10.68;;
49548;SDS011;35450;44.518;7.466;2022-09-24T06:41:11;18.63;;;10.07;;
49548;SDS011;35450;44.518;7.466;2022-09-24T06:44:15;12.80;;;9.07;;
49548;SDS011;35450;44.518;7.466;2022-09-24T06:47:19;15.02;;;9.25;;
49548;SDS011;35450;44.518;7.466;2022-09-24T06:50:24;12.27;;;9.07;;
49548;SDS011;35450;44.518;7.466;2022-09-24T06:53:29;18.30;;;9.60;;
49548;SDS011;35450;44.518;7.466;2022-09-24T06:56:33;13.55;;;8.88;;
49548;SDS011;35450;44.518;7.466;2022-09-24T06:59:38;16.02;;;9.00;;
49548;SDS011;35450;44.518;7.466;2022-09-24T07:02:42;17.48;;;8.98;;
49548;SDS011;35450;44.518;7.466;2022-09-24T07:05:46;14.77;;;8.88;;
49548;SDS011;35450;44.518;7.466;2022-09-24T07:08:50;15.32;;;9.02;;
49548;SDS011;35450;44.518;7.466;2022-09-24T07:11:54;14.02;;;10.27;;
49548;SDS011;35450;44.518;7.466;2022-09-24T07:15:00;14.00;;;10.27;;
49548;SDS011;35450;44.518;7.466;2022-09-24T07:18:06;14.48;;;9.88;;
49548;SDS011;35450;44.518;7.466;2022-09-24T07:21:10;15.93;;;10.55;;
49548;SDS011;35450;44.518;7.466;2022-09-24T07:24:15;13.45;;;9.60;;
49548;SDS011;35450;44.518;7.466;2022-09-24T07:27:19;15.68;;;11.15;;
49548;SDS011;35450;44.518;7.466;2022-09-24T07:30:23;16.45;;;10.70;;
49548;SDS011;35450;44.518;7.466;2022-09-24T07:33:29;14.65;;;10.70;;
49548;SDS011;35450;44.518;7.466;2022-09-24T07:36:33;14.35;;;11.63;;
49548;SDS011;35450;44.518;7.466;2022-09-24T07:39:37;13.82;;;10.25;;
49548;SDS011;35450;44.518;7.466;2022-09-24T07:42:45;12.45;;;10.27;;
49548;SDS011;35450;44.518;7.466;2022-09-24T07:45:51;14.73;;;10.52;;
49548;SDS011;35450;44.518;7.466;2022-09-24T07:48:55;14.93;;;10.55;;
49548;SDS011;35450;44.518;7.466;2022-09-24T07:52:00;14.73;;;10.70;;
49548;SDS011;35450;44.518;7.466;2022-09-24T07:55:04;13.75;;;9.55;;
49548;SDS011;35450;44.518;7.466;2022-09-24T07:58:10;15.95;;;10.93;;
49548;SDS011;35450;44.518;7.466;2022-09-24T08:01:15;13.25;;;11.77;;
49548;SDS011;35450;44.518;7.466;2022-09-24T08:04:20;11.88;;;10.18;;
49548;SDS011;35450;44.518;7.466;2022-09-24T08:07:24;14.98;;;10.70;;
49548;SDS011;35450;44.518;7.466;2022-09-24T08:10:28;16.33;;;11.80;;
49548;SDS011;35450;44.518;7.466;2022-09-24T08:13:32;18.50;;;11.73;;
49548;SDS011;35450;44.518;7.466;2022-09-24T08:16:37;15.88;;;11.10;;
49548;SDS011;35450;44.518;7.466;2022-09-24T08:19:43;19.38;;;10.90;;
49548;SDS011;35450;44.518;7.466;2022-09-24T08:22:49;15.55;;;11.45;;
49548;SDS011;35450;44.518;7.466;2022-09-24T08:25:53;19.13;;;13.40;;
49548;SDS011;35450;44.518;7.466;2022-09-24T08:28:58;22.73;;;12.82;;
49548;SDS011;35450;44.518;7.466;2022-09-24T08:32:02;17.73;;;12.50;;
49548;SDS011;35450;44.518;7.466;2022-09-24T08:35:06;17.20;;;13.07;;
49548;SDS011;35450;44.518;7.466;2022-09-24T08:38:10;15.38;;;11.73;;
49548;SDS011;35450;44.518;7.466;2022-09-24T08:41:18;25.13;;;12.23;;
49548;SDS011;35450;44.518;7.466;2022-09-24T08:44:43;14.30;;;11.10;;
49548;SDS011;35450;44.518;7.466;2022-09-24T08:48:16;14.57;;;10.90;;
49548;SDS011;35450;44.518;7.466;2022-09-24T08:51:38;15.35;;;10.77;;
49548;SDS011;35450;44.518;7.466;2022-09-24T08:54:48;25.20;;;10.57;;
49548;SDS011;35450;44.518;7.466;2022-09-24T09:04:42;15.68;;;11.43;;
49548;SDS011;35450;44.518;7.466;2022-09-24T09:11:10;15.68;;;11.75;;
49548;SDS011;35450;44.518;7.466;2022-09-24T09:14:19;12.02;;;10.73;;
49548;SDS011;35450;44.518;7.466;2022-09-24T09:20:48;14.52;;;11.70;;
49548;SDS011;35450;44.518;7.466;2022-09-24T09:23:53;14.30;;;11.82;;
49548;SDS011;35450;44.518;7.466;2022-09-24T09:26:59;16.88;;;11.55;;
49548;SDS011;35450;44.518;7.466;2022-09-24T09:30:03;17.75;;;12.00;;
49548;SDS011;35450;44.518;7.466;2022-09-24T09:37:02;14.93;;;12.13;;
49548;SDS011;35450;44.518;7.466;2022-09-24T09:40:52;13.02;;;11.57;;
49548;SDS011;35450;44.518;7.466;2022-09-24T09:44:17;14.88;;;11.70;;
49548;SDS011;35450;44.518;7.466;2022-09-24T09:47:58;15.75;;;11.07;;
49548;SDS011;35450;44.518;7.466;2022-09-24T09:51:02;13.95;;;11.88;;
49548;SDS011;35450;44.518;7.466;2022-09-24T09:54:08;18.10;;;12.02;;
49548;SDS011;35450;44.518;7.466;2022-09-24T09:57:14;19.95;;;12.38;;
49548;SDS011;35450;44.518;7.466;2022-09-24T10:00:25;16.10;;;13.13;;
49548;SDS011;35450;44.518;7.466;2022-09-24T10:06:48;18.92;;;12.23;;
49548;SDS011;35450;44.518;7.466;2022-09-24T10:09:59;17.30;;;12.77;;
49548;SDS011;35450;44.518;7.466;2022-09-24T10:13:19;14.02;;;12.63;;
49548;SDS011;35450;44.518;7.466;2022-09-24T10:16:23;19.90;;;13.32;;
49548;SDS011;35450;44.518;7.466;2022-09-24T10:19:28;15.43;;;13.82;;
49548;SDS011;35450;44.518;7.466;2022-09-24T10:22:32;15.45;;;12.38;;
49548;SDS011;35450;44.518;7.466;2022-09-24T10:25:38;14.80;;;13.20;;
49548;SDS011;35450;44.518;7.466;2022-09-24T10:28:45;16.85;;;13.18;;
49548;SDS011;35450;44.518;7.466;2022-09-24T10:32:14;16.02;;;12.73;;
49548;SDS011;35450;44.518;7.466;2022-09-24T10:35:28;16.55;;;12.50;;
49548;SDS011;35450;44.518;7.466;2022-09-24T10:38:36;19.30;;;13.70;;
49548;SDS011;35450;44.518;7.466;2022-09-24T10:41:47;14.32;;;12.82;;
49548;SDS011;35450;44.518;7.466;2022-09-24T10:44:52;16.00;;;13.43;;
49548;SDS011;35450;44.518;7.466;2022-09-24T10:48:07;19.15;;;13.50;;
49548;SDS011;35450;44.518;7.466;2022-09-24T10:51:38;17.17;;;12.73;;
49548;SDS011;35450;44.518;7.466;2022-09-24T10:58:18;14.55;;;13.05;;
49548;SDS011;35450;44.518;7.466;2022-09-24T11:01:26;16.25;;;13.77;;
49548;SDS011;35450;44.518;7.466;2022-09-24T11:08:14;17.45;;;13.88;;
49548;SDS011;35450;44.518;7.466;2022-09-24T11:29:09;16.00;;;13.30;;
49548;SDS011;35450;44.518;7.466;2022-09-24T11:32:21;14.25;;;12.77;;
49548;SDS011;35450;44.518;7.466;2022-09-24T11:39:43;15.80;;;12.93;;
49548;SDS011;35450;44.518;7.466;2022-09-24T11:53:26;12.73;;;10.85;;
49548;SDS011;35450;44.518;7.466;2022-09-24T11:56:43;14.23;;;11.68;;
49548;SDS011;35450;44.518;7.466;2022-09-24T11:59:59;12.13;;;10.70;;
49548;SDS011;35450;44.518;7.466;2022-09-24T12:03:19;12.85;;;10.13;;
49548;SDS011;35450;44.518;7.466;2022-09-24T12:06:39;13.43;;;11.00;;
49548;SDS011;35450;44.518;7.466;2022-09-24T12:09:57;12.88;;;10.77;;
49548;SDS011;35450;44.518;7.466;2022-09-24T12:16:37;12.15;;;9.85;;
49548;SDS011;35450;44.518;7.466;2022-09-24T12:19:51;11.13;;;10.02;;
49548;SDS011;35450;44.518;7.466;2022-09-24T12:23:04;11.10;;;10.00;;
49548;SDS011;35450;44.518;7.466;2022-09-24T12:26:15;11.68;;;10.57;;
49548;SDS011;35450;44.518;7.466;2022-09-24T12:29:34;12.07;;;10.80;;
49548;SDS011;35450;44.518;7.466;2022-09-24T12:40:23;12.70;;;11.20;;
49548;SDS011;35450;44.518;7.466;2022-09-24T12:44:01;14.70;;;11.55;;
49548;SDS011;35450;44.518;7.466;2022-09-24T12:47:28;13.10;;;11.80;;
49548;SDS011;35450;44.518;7.466;2022-09-24T12:50:36;15.27;;;12.32;;
49548;SDS011;35450;44.518;7.466;2022-09-24T12:53:42;15.32;;;13.63;;
49548;SDS011;35450;44.518;7.466;2022-09-24T13:03:40;20.13;;;16.27;;
49548;SDS011;35450;44.518;7.466;2022-09-24T13:06:45;18.60;;;15.70;;
49548;SDS011;35450;44.518;7.466;2022-09-24T13:09:51;17.25;;;14.73;;
49548;SDS011;35450;44.518;7.466;2022-09-24T13:12:56;19.23;;;14.98;;
49548;SDS011;35450;44.518;7.466;2022-09-24T13:19:23;24.40;;;20.17;;
49548;SDS011;35450;44.518;7.466;2022-09-24T13:22:40;25.40;;;21.05;;
49548;SDS011;35450;44.518;7.466;2022-09-24T13:29:04;24.10;;;20.00;;
49548;SDS011;35450;44.518;7.466;2022-09-24T13:32:24;23.30;;;19.25;;
49548;SDS011;35450;44.518;7.466;2022-09-24T13:35:32;26.73;;;21.05;;
49548;SDS011;35450;44.518;7.466;2022-09-24T13:45:22;29.48;;;23.15;;
49548;SDS011;35450;44.518;7.466;2022-09-24T13:48:32;25.38;;;20.80;;
49548;SDS011;35450;44.518;7.466;2022-09-24T13:51:40;27.58;;;21.23;;
49548;SDS011;35450;44.518;7.466;2022-09-24T13:54:49;25.60;;;17.85;;
49548;SDS011;35450;44.518;7.466;2022-09-24T13:57:56;18.30;;;15.27;;
49548;SDS011;35450;44.518;7.466;2022-09-24T14:01:02;19.15;;;15.52;;
49548;SDS011;35450;44.518;7.466;2022-09-24T14:04:13;15.63;;;14.02;;
49548;SDS011;35450;44.518;7.466;2022-09-24T14:07:19;16.05;;;14.35;;
49548;SDS011;35450;44.518;7.466;2022-09-24T14:10:24;16.23;;;14.32;;
49548;SDS011;35450;44.518;7.466;2022-09-24T14:13:29;15.10;;;13.50;;
49548;SDS011;35450;44.518;7.466;2022-09-24T14:16:32;18.42;;;15.70;;
49548;SDS011;35450;44.518;7.466;2022-09-24T14:19:37;19.75;;;16.30;;
49548;SDS011;35450;44.518;7.466;2022-09-24T14:22:41;18.65;;;15.27;;
49548;SDS011;35450;44.518;7.466;2022-09-24T14:25:47;18.02;;;13.80;;
49548;SDS011;35450;44.518;7.466;2022-09-24T14:28:53;16.50;;;13.90;;
49548;SDS011;35450;44.518;7.466;2022-09-24T14:32:00;16.90;;;15.02;;
49548;SDS011;35450;44.518;7.466;2022-09-24T14:35:11;16.27;;;14.68;;
49548;SDS011;35450;44.518;7.466;2022-09-24T14:38:25;17.55;;;14.77;;
49548;SDS011;35450;44.518;7.466;2022-09-24T14:44:37;16.50;;;14.20;;
49548;SDS011;35450;44.518;7.466;2022-09-24T14:47:46;17.48;;;14.23;;
49548;SDS011;35450;44.518;7.466;2022-09-24T14:50:50;19.20;;;14.80;;
49548;SDS011;35450;44.518;7.466;2022-09-24T14:57:38;19.73;;;16.50;;
49548;SDS011;35450;44.518;7.466;2022-09-24T15:00:46;20.58;;;15.80;;
49548;SDS011;35450;44.518;7.466;2022-09-24T15:03:53;20.70;;;15.90;;
49548;SDS011;35450;44.518;7.466;2022-09-24T15:07:12;18.90;;;15.82;;
49548;SDS011;35450;44.518;7.466;2022-09-24T15:10:21;18.98;;;16.60;;
49548;SDS011;35450;44.518;7.466;2022-09-24T15:13:30;20.30;;;17.30;;
49548;SDS011;35450;44.518;7.466;2022-09-24T15:16:36;23.67;;;17.40;;
49548;SDS011;35450;44.518;7.466;2022-09-24T15:19:40;21.70;;;17.90;;
49548;SDS011;35450;44.518;7.466;2022-09-24T15:22:46;20.20;;;17.10;;
49548;SDS011;35450;44.518;7.466;2022-09-24T15:25:50;21.70;;;17.48;;
49548;SDS011;35450;44.518;7.466;2022-09-24T15:28:57;20.13;;;16.85;;
49548;SDS011;35450;44.518;7.466;2022-09-24T15:32:04;19.88;;;16.63;;
49548;SDS011;35450;44.518;7.466;2022-09-24T15:35:15;23.38;;;17.38;;
49548;SDS011;35450;44.518;7.466;2022-09-24T15:38:19;19.95;;;17.08;;
49548;SDS011;35450;44.518;7.466;2022-09-24T15:41:23;24.73;;;18.35;;
49548;SDS011;35450;44.518;7.466;2022-09-24T15:44:27;25.00;;;19.88;;
49548;SDS011;35450;44.518;7.466;2022-09-24T15:47:31;20.92;;;18.10;;
49548;SDS011;35450;44.518;7.466;2022-09-24T15:50:36;23.38;;;18.58;;
49548;SDS011;35450;44.518;7.466;2022-09-24T15:53:42;23.67;;;18.27;;
49548;SDS011;35450;44.518;7.466;2022-09-24T15:56:45;20.35;;;17.92;;
49548;SDS011;35450;44.518;7.466;2022-09-24T15:59:54;21.08;;;17.75;;
49548;SDS011;35450;44.518;7.466;2022-09-24T16:02:58;21.85;;;16.42;;
49548;SDS011;35450;44.518;7.466;2022-09-24T16:06:04;21.17;;;17.85;;
49548;SDS011;35450;44.518;7.466;2022-09-24T16:09:08;27.27;;;21.60;;
49548;SDS011;35450;44.518;7.466;2022-09-24T16:12:15;21.85;;;18.85;;
49548;SDS011;35450;44.518;7.466;2022-09-24T16:15:21;24.35;;;19.00;;
49548;SDS011;35450;44.518;7.466;2022-09-24T16:18:25;22.20;;;19.10;;
49548;SDS011;35450;44.518;7.466;2022-09-24T16:21:29;23.17;;;19.17;;
49548;SDS011;35450;44.518;7.466;2022-09-24T16:24:33;23.52;;;18.63;;
49548;SDS011;35450;44.518;7.466;2022-09-24T16:27:37;22.10;;;18.75;;
49548;SDS011;35450;44.518;7.466;2022-09-24T16:30:42;20.70;;;18.00;;
49548;SDS011;35450;44.518;7.466;2022-09-24T16:33:46;26.52;;;19.02;;
49548;SDS011;35450;44.518;7.466;2022-09-24T16:36:51;23.10;;;19.98;;
49548;SDS011;35450;44.518;7.466;2022-09-24T16:39:55;23.63;;;19.48;;
49548;SDS011;35450;44.518;7.466;2022-09-24T16:42:59;22.38;;;18.60;;
49548;SDS011;35450;44.518;7.466;2022-09-24T16:46:08;23.25;;;19.70;;
49548;SDS011;35450;44.518;7.466;2022-09-24T16:49:12;22.42;;;18.58;;
49548;SDS011;35450;44.518;7.466;2022-09-24T16:52:16;24.17;;;19.48;;
49548;SDS011;35450;44.518;7.466;2022-09-24T16:55:21;22.48;;;18.60;;
49548;SDS011;35450;44.518;7.466;2022-09-24T16:58:27;21.02;;;18.70;;
49548;SDS011;35450;44.518;7.466;2022-09-24T17:01:34;24.92;;;20.10;;
49548;SDS011;35450;44.518;7.466;2022-09-24T17:04:38;23.50;;;19.27;;
49548;SDS011;35450;44.518;7.466;2022-09-24T17:07:42;25.13;;;20.15;;
49548;SDS011;35450;44.518;7.466;2022-09-24T17:10:49;24.42;;;20.88;;
49548;SDS011;35450;44.518;7.466;2022-09-24T17:13:53;25.98;;;20.75;;
49548;SDS011;35450;44.518;7.466;2022-09-24T17:16:58;25.88;;;20.52;;
49548;SDS011;35450;44.518;7.466;2022-09-24T17:20:02;22.63;;;19.52;;
49548;SDS011;35450;44.518;7.466;2022-09-24T17:23:06;23.38;;;19.63;;
49548;SDS011;35450;44.518;7.466;2022-09-24T17:26:11;28.55;;;21.80;;
49548;SDS011;35450;44.518;7.466;2022-09-24T17:29:17;28.25;;;22.48;;
49548;SDS011;35450;44.518;7.466;2022-09-24T17:32:24;28.13;;;21.13;;
49548;SDS011;35450;44.518;7.466;2022-09-24T17:35:28;29.27;;;21.88;;
49548;SDS011;35450;44.518;7.466;2022-09-24T17:38:33;25.90;;;20.80;;
49548;SDS011;35450;44.518;7.466;2022-09-24T17:41:38;24.67;;;21.17;;
49548;SDS011;35450;44.518;7.466;2022-09-24T17:44:43;25.75;;;21.30;;
49548;SDS011;35450;44.518;7.466;2022-09-24T17:47:48;25.83;;;21.08;;
49548;SDS011;35450;44.518;7.466;2022-09-24T17:51:04;25.77;;;21.23;;
49548;SDS011;35450;44.518;7.466;2022-09-24T17:54:10;26.27;;;20.25;;
49548;SDS011;35450;44.518;7.466;2022-09-24T17:57:16;25.05;;;19.20;;
49548;SDS011;35450;44.518;7.466;2022-09-24T18:00:20;26.98;;;20.95;;
49548;SDS011;35450;44.518;7.466;2022-09-24T18:03:25;28.15;;;21.17;;
49548;SDS011;35450;44.518;7.466;2022-09-24T18:06:29;28.25;;;22.27;;
49548;SDS011;35450;44.518;7.466;2022-09-24T18:09:35;26.67;;;21.15;;
49548;SDS011;35450;44.518;7.466;2022-09-24T18:12:40;28.42;;;23.15;;
49548;SDS011;35450;44.518;7.466;2022-09-24T18:15:45;30.33;;;22.98;;
49548;SDS011;35450;44.518;7.466;2022-09-24T18:18:50;27.40;;;22.48;;
49548;SDS011;35450;44.518;7.466;2022-09-24T18:21:56;29.05;;;21.85;;
49548;SDS011;35450;44.518;7.466;2022-09-24T18:25:02;29.05;;;24.38;;
49548;SDS011;35450;44.518;7.466;2022-09-24T18:28:09;28.65;;;22.33;;
49548;SDS011;35450;44.518;7.466;2022-09-24T18:31:15;24.88;;;20.70;;
49548;SDS011;35450;44.518;7.466;2022-09-24T18:34:21;29.23;;;20.58;;
49548;SDS011;35450;44.518;7.466;2022-09-24T18:37:26;25.73;;;19.50;;
49548;SDS011;35450;44.518;7.466;2022-09-24T18:40:31;26.00;;;19.35;;
49548;SDS011;35450;44.518;7.466;2022-09-24T18:43:37;22.75;;;18.15;;
49548;SDS011;35450;44.518;7.466;2022-09-24T18:46:43;24.08;;;18.92;;
49548;SDS011;35450;44.518;7.466;2022-09-24T18:49:48;22.83;;;17.42;;
49548;SDS011;35450;44.518;7.466;2022-09-24T18:52:53;22.33;;;18.17;;
49548;SDS011;35450;44.518;7.466;2022-09-24T18:55:58;22.98;;;18.92;;
49548;SDS011;35450;44.518;7.466;2022-09-24T18:59:10;20.98;;;17.50;;
49548;SDS011;35450;44.518;7.466;2022-09-24T19:02:16;23.17;;;18.73;;
49548;SDS011;35450;44.518;7.466;2022-09-24T19:05:20;25.23;;;19.65;;
49548;SDS011;35450;44.518;7.466;2022-09-24T19:08:24;23.33;;;18.90;;
49548;SDS011;35450;44.518;7.466;2022-09-24T19:11:30;27.05;;;19.55;;
49548;SDS011;35450;44.518;7.466;2022-09-24T19:14:36;23.55;;;18.92;;
49548;SDS011;35450;44.518;7.466;2022-09-24T19:17:41;25.33;;;19.20;;
49548;SDS011;35450;44.518;7.466;2022-09-24T19:20:46;24.00;;;19.30;;
49548;SDS011;35450;44.518;7.466;2022-09-24T19:23:54;23.75;;;18.88;;
49548;SDS011;35450;44.518;7.466;2022-09-24T19:27:00;21.75;;;19.00;;
49548;SDS011;35450;44.518;7.466;2022-09-24T19:30:04;25.05;;;20.95;;
49548;SDS011;35450;44.518;7.466;2022-09-24T19:33:10;25.10;;;20.67;;
49548;SDS011;35450;44.518;7.466;2022-09-24T19:36:18;24.60;;;19.98;;
49548;SDS011;35450;44.518;7.466;2022-09-24T19:39:24;25.63;;;20.27;;
49548;SDS011;35450;44.518;7.466;2022-09-24T19:42:30;22.73;;;19.77;;
49548;SDS011;35450;44.518;7.466;2022-09-24T19:45:35;23.83;;;19.52;;
49548;SDS011;35450;44.518;7.466;2022-09-24T19:48:40;25.83;;;20.10;;
49548;SDS011;35450;44.518;7.466;2022-09-24T19:51:47;23.48;;;20.02;;
49548;SDS011;35450;44.518;7.466;2022-09-24T19:54:56;28.55;;;21.05;;
49548;SDS011;35450;44.518;7.466;2022-09-24T19:58:01;26.92;;;21.98;;
49548;SDS011;35450;44.518;7.466;2022-09-24T20:01:06;29.60;;;22.35;;
49548;SDS011;35450;44.518;7.466;2022-09-24T20:04:11;27.90;;;22.42;;
49548;SDS011;35450;44.518;7.466;2022-09-24T20:07:18;25.92;;;22.67;;
49548;SDS011;35450;44.518;7.466;2022-09-24T20:10:22;28.08;;;22.35;;
49548;SDS011;35450;44.518;7.466;2022-09-24T20:13:27;27.20;;;23.73;;
49548;SDS011;35450;44.518;7.466;2022-09-24T20:16:33;28.20;;;22.95;;
49548;SDS011;35450;44.518;7.466;2022-09-24T20:19:39;25.40;;;21.80;;
49548;SDS011;35450;44.518;7.466;2022-09-24T20:22:44;24.48;;;21.17;;
49548;SDS011;35450;44.518;7.466;2022-09-24T20:25:50;28.75;;;22.88;;
49548;SDS011;35450;44.518;7.466;2022-09-24T20:29:14;26.85;;;22.13;;
49548;SDS011;35450;44.518;7.466;2022-09-24T20:32:20;28.50;;;24.25;;
49548;SDS011;35450;44.518;7.466;2022-09-24T20:35:24;31.10;;;23.75;;